createdAt,value
2019-03-29T00:01:06.764Z,57.83
2019-03-29T00:03:35.247Z,56.53
2019-03-29T00:06:03.738Z,54.40
2019-03-29T00:08:32.142Z,62.20
2019-03-29T00:11:00.548Z,59.03
2019-03-29T00:13:28.975Z,57.27
2019-03-29T00:15:57.372Z,61.77
2019-03-29T00:18:25.766Z,53.03
2019-03-29T00:20:54.199Z,59.93
2019-03-29T00:23:23.085Z,60.37
2019-03-29T00:25:51.703Z,57.23
2019-03-29T00:28:20.122Z,54.60
2019-03-29T00:30:48.567Z,62.10
2019-03-29T00:33:16.989Z,57.20
2019-03-29T00:35:45.421Z,51.47
2019-03-29T00:38:13.826Z,61.40
2019-03-29T00:40:42.299Z,62.50
2019-03-29T00:43:10.741Z,50.80
2019-03-29T00:45:39.273Z,60.07
2019-03-29T00:48:07.697Z,54.90
2019-03-29T00:50:36.124Z,50.50
2019-03-29T00:53:04.600Z,54.37
2019-03-29T00:55:32.995Z,53.13
2019-03-29T00:58:01.446Z,48.63
2019-03-29T01:00:31.575Z,58.77
2019-03-29T01:02:59.984Z,47.90
2019-03-29T01:05:28.470Z,51.60
2019-03-29T01:08:07.071Z,52.40
2019-03-29T01:10:27.141Z,50.97
2019-03-29T01:12:55.553Z,54.00
2019-03-29T01:15:23.976Z,48.63
2019-03-29T01:17:52.370Z,48.87
2019-03-29T01:20:21.202Z,49.53
2019-03-29T01:22:50.440Z,51.37
2019-03-29T01:25:18.854Z,48.97
2019-03-29T01:27:47.249Z,49.50
2019-03-29T01:30:15.782Z,47.13
2019-03-29T01:32:44.188Z,46.73
2019-03-29T01:35:12.751Z,45.50
2019-03-29T01:37:41.175Z,48.43
2019-03-29T01:40:09.809Z,46.90
2019-03-29T01:42:38.222Z,47.43
2019-03-29T01:45:08.233Z,48.43
2019-03-29T01:47:36.728Z,55.03
2019-03-29T01:50:07.958Z,43.93
2019-03-29T01:52:36.576Z,51.73
2019-03-29T01:55:07.877Z,43.37
2019-03-29T01:57:36.379Z,49.27
2019-03-29T02:00:06.210Z,49.63
2019-03-29T02:02:34.634Z,45.73
2019-03-29T02:05:03.926Z,44.90
2019-03-29T02:07:32.340Z,48.97
2019-03-29T02:10:00.800Z,50.50
2019-03-29T02:12:29.181Z,43.43
2019-03-29T02:14:57.664Z,48.23
2019-03-29T02:17:26.101Z,46.93
2019-03-29T02:19:54.601Z,45.23
2019-03-29T02:22:23.010Z,46.33
2019-03-29T02:24:51.503Z,47.40
2019-03-29T02:27:19.918Z,48.90
2019-03-29T02:29:48.363Z,46.83
2019-03-29T02:32:16.749Z,48.00
2019-03-29T02:34:45.156Z,53.20
2019-03-29T02:37:13.570Z,48.17
2019-03-29T02:39:41.981Z,47.87
2019-03-29T02:42:10.395Z,49.90
2019-03-29T02:44:38.795Z,51.80
2019-03-29T02:47:07.207Z,48.33
2019-03-29T02:49:35.624Z,49.40
2019-03-29T02:52:04.290Z,44.97
2019-03-29T02:54:32.698Z,45.97
2019-03-29T02:57:01.133Z,47.57
2019-03-29T02:59:29.530Z,44.63
2019-03-29T03:01:58.007Z,47.53
2019-03-29T03:04:26.426Z,41.20
2019-03-29T03:06:54.828Z,44.03
2019-03-29T03:09:23.240Z,44.47
2019-03-29T03:11:51.735Z,39.03
2019-03-29T03:14:20.127Z,36.67
2019-03-29T03:16:48.549Z,38.57
2019-03-29T03:19:16.941Z,35.70
2019-03-29T03:21:45.417Z,39.10
2019-03-29T03:24:13.818Z,40.90
2019-03-29T03:26:42.210Z,38.93
2019-03-29T03:29:10.637Z,37.67
2019-03-29T03:31:39.054Z,40.97
2019-03-29T03:34:07.601Z,50.20
2019-03-29T03:36:36.017Z,46.20
2019-03-29T03:39:07.455Z,43.97
2019-03-29T03:41:35.912Z,41.63
2019-03-29T03:44:04.397Z,46.37
2019-03-29T03:46:32.906Z,39.57
2019-03-29T03:49:01.323Z,39.60
2019-03-29T03:51:29.906Z,40.03
2019-03-29T03:53:58.408Z,43.90
2019-03-29T03:56:28.527Z,38.93
2019-03-29T03:58:58.058Z,41.60
2019-03-29T04:01:26.467Z,37.60
2019-03-29T04:03:54.881Z,39.13
2019-03-29T04:06:23.300Z,33.97
2019-03-29T04:08:51.735Z,35.50
2019-03-29T04:11:20.144Z,31.00
2019-03-29T04:13:48.541Z,36.27
2019-03-29T04:16:16.981Z,36.00
2019-03-29T04:18:45.421Z,33.23
2019-03-29T04:21:13.869Z,39.10
2019-03-29T04:23:42.311Z,36.87
2019-03-29T04:26:10.718Z,32.70
2019-03-29T04:28:39.128Z,35.60
2019-03-29T04:31:07.549Z,34.07
2019-03-29T04:33:35.959Z,40.37
2019-03-29T04:36:04.404Z,35.00
2019-03-29T04:38:32.824Z,36.03
2019-03-29T04:41:01.223Z,35.40
2019-03-29T04:43:29.645Z,33.03
2019-03-29T04:45:58.051Z,35.30
2019-03-29T04:48:26.472Z,34.00
2019-03-29T04:50:55.033Z,32.40
2019-03-29T04:53:23.438Z,36.67
2019-03-29T04:55:51.874Z,40.10
2019-03-29T04:58:20.277Z,31.67
2019-03-29T05:00:48.744Z,35.40
2019-03-29T05:03:17.866Z,31.77
2019-03-29T05:05:46.247Z,29.63
2019-03-29T05:08:14.681Z,31.90
2019-03-29T05:10:43.125Z,33.43
2019-03-29T05:13:11.601Z,34.53
2019-03-29T05:15:40.023Z,32.63
2019-03-29T05:18:08.447Z,34.93
2019-03-29T05:20:36.857Z,34.17
2019-03-29T05:23:05.327Z,31.10
2019-03-29T05:25:33.757Z,35.43
2019-03-29T05:28:02.206Z,36.77
2019-03-29T05:30:30.644Z,31.90
2019-03-29T05:32:59.219Z,35.40
2019-03-29T05:35:27.666Z,35.23
2019-03-29T05:37:56.057Z,34.20
2019-03-29T05:40:34.714Z,32.03
2019-03-29T05:42:54.604Z,33.10
2019-03-29T05:45:23.011Z,31.23
2019-03-29T05:47:51.450Z,33.90
2019-03-29T05:50:20.347Z,34.63
2019-03-29T05:52:48.807Z,33.37
2019-03-29T05:55:17.221Z,35.60
2019-03-29T05:57:45.622Z,33.50
2019-03-29T06:00:15.839Z,33.80
2019-03-29T06:02:44.247Z,29.07
2019-03-29T06:05:12.672Z,34.97
2019-03-29T06:07:41.076Z,41.23
2019-03-29T06:10:09.706Z,29.77
2019-03-29T06:12:38.534Z,30.80
2019-03-29T06:15:07.506Z,31.47
2019-03-29T06:17:48.066Z,32.20
2019-03-29T06:20:08.045Z,34.47
2019-03-29T06:22:36.468Z,31.53
2019-03-29T06:25:07.123Z,30.90
2019-03-29T06:27:35.520Z,34.90
2019-03-29T06:30:05.976Z,35.43
2019-03-29T06:32:34.465Z,30.20
2019-03-29T06:35:03.048Z,37.70
2019-03-29T06:37:33.206Z,33.30
2019-03-29T06:40:01.839Z,32.93
2019-03-29T06:42:30.288Z,36.13
2019-03-29T06:44:58.733Z,37.47
2019-03-29T06:47:27.125Z,33.73
2019-03-29T06:49:55.602Z,39.83
2019-03-29T06:52:24.085Z,40.17
2019-03-29T06:54:52.491Z,41.67
2019-03-29T06:57:20.983Z,39.43
2019-03-29T06:59:49.384Z,40.10
2019-03-29T07:02:17.892Z,40.03
2019-03-29T07:04:46.302Z,33.30
2019-03-29T07:07:14.718Z,52.63
2019-03-29T07:09:43.114Z,56.77
2019-03-29T07:12:11.528Z,47.70
2019-03-29T07:14:39.964Z,35.40
2019-03-29T07:17:10.292Z,34.60
2019-03-29T07:19:38.523Z,33.07
2019-03-29T07:22:06.948Z,41.50
2019-03-29T07:24:35.389Z,48.30
2019-03-29T07:27:03.824Z,36.90
2019-03-29T07:29:32.383Z,37.97
2019-03-29T07:32:00.819Z,33.03
2019-03-29T07:34:29.230Z,23.40
2019-03-29T07:36:57.649Z,28.17
2019-03-29T07:39:26.960Z,43.30
2019-03-29T07:41:55.404Z,32.80
2019-03-29T07:44:23.817Z,21.73
2019-03-29T07:46:52.298Z,23.10
2019-03-29T07:49:20.696Z,26.93
2019-03-29T07:51:49.140Z,22.57
2019-03-29T07:54:17.519Z,24.23
2019-03-29T07:56:45.919Z,23.73
2019-03-29T07:59:15.999Z,27.70
2019-03-29T08:01:44.414Z,27.43
2019-03-29T08:04:12.839Z,26.70
2019-03-29T08:06:41.245Z,21.43
2019-03-29T08:09:21.570Z,19.73
2019-03-29T08:11:46.289Z,31.80
2019-03-29T08:14:10.053Z,21.83
2019-03-29T08:16:38.446Z,18.93
2019-03-29T08:19:06.881Z,17.87
2019-03-29T08:21:35.281Z,18.07
2019-03-29T08:24:03.772Z,19.10
2019-03-29T08:26:32.192Z,16.67
2019-03-29T08:29:00.617Z,17.87
2019-03-29T08:31:29.027Z,20.80
2019-03-29T08:33:57.469Z,16.40
2019-03-29T08:36:25.880Z,19.20
2019-03-29T08:38:54.312Z,17.87
2019-03-29T08:41:22.735Z,17.57
2019-03-29T08:43:51.172Z,16.63
2019-03-29T08:46:19.594Z,16.27
2019-03-29T08:48:48.051Z,16.10
2019-03-29T08:51:16.532Z,15.57
2019-03-29T08:53:45.015Z,17.10
2019-03-29T08:56:13.932Z,19.00
2019-03-29T08:58:42.342Z,18.87
2019-03-29T09:01:10.825Z,16.40
2019-03-29T09:03:39.344Z,22.07
2019-03-29T09:06:07.890Z,18.03
2019-03-29T09:08:36.322Z,23.57
2019-03-29T09:11:07.589Z,20.57
2019-03-29T09:13:35.110Z,19.93
2019-03-29T09:16:03.614Z,23.10
2019-03-29T09:18:32.028Z,23.57
2019-03-29T09:21:00.527Z,21.13
2019-03-29T09:23:30.306Z,20.73
2019-03-29T09:25:59.018Z,17.50
2019-03-29T09:28:27.449Z,17.43
2019-03-29T09:30:56.738Z,26.63
2019-03-29T09:33:25.334Z,20.93
2019-03-29T09:35:53.761Z,22.90
2019-03-29T09:38:22.274Z,20.40
2019-03-29T09:40:58.789Z,18.43
2019-03-29T09:43:21.230Z,19.00
2019-03-29T09:45:49.739Z,21.87
2019-03-29T09:48:18.142Z,24.40
2019-03-29T09:50:50.443Z,18.33
2019-03-29T09:53:16.817Z,23.17
2019-03-29T09:55:45.862Z,21.20
2019-03-29T09:58:16.584Z,19.47
2019-03-29T10:00:44.694Z,17.10
2019-03-29T10:03:13.145Z,13.90
2019-03-29T10:05:41.577Z,16.30
2019-03-29T10:08:10.052Z,19.07
2019-03-29T10:10:38.478Z,22.70
2019-03-29T10:13:07.071Z,14.97
2019-03-29T10:15:35.510Z,15.70
2019-03-29T10:18:03.905Z,17.63
2019-03-29T10:20:32.306Z,14.67
2019-03-29T10:23:00.717Z,15.83
2019-03-29T10:25:29.136Z,15.53
2019-03-29T10:27:57.542Z,13.63
2019-03-29T10:30:46.527Z,13.63
2019-03-29T10:33:14.294Z,17.33
2019-03-29T10:35:51.621Z,11.67
2019-03-29T10:38:13.120Z,11.87
2019-03-29T10:40:41.661Z,12.00
2019-03-29T10:43:10.351Z,11.50
2019-03-29T10:45:40.649Z,11.50
2019-03-29T10:48:09.141Z,12.60
2019-03-29T10:50:37.550Z,15.37
2019-03-29T10:53:06.122Z,24.03
2019-03-29T10:55:34.611Z,12.97
2019-03-29T10:58:02.992Z,12.17
2019-03-29T11:00:36.781Z,13.17
2019-03-29T11:03:06.125Z,13.33
2019-03-29T11:05:34.632Z,10.73
2019-03-29T11:08:03.190Z,12.67
2019-03-29T11:10:34.304Z,13.80
2019-03-29T11:13:12.724Z,10.63
2019-03-29T11:15:33.465Z,11.63
2019-03-29T11:18:01.869Z,12.77
2019-03-29T11:20:30.523Z,12.53
2019-03-29T11:22:58.983Z,12.13
2019-03-29T11:25:27.509Z,13.73
2019-03-29T11:27:56.010Z,11.27
2019-03-29T11:30:24.526Z,10.47
2019-03-29T11:32:52.978Z,11.53
2019-03-29T11:35:21.389Z,12.17
2019-03-29T11:37:49.812Z,10.40
2019-03-29T11:40:18.462Z,14.80
2019-03-29T11:42:46.941Z,14.10
2019-03-29T11:45:15.419Z,11.07
2019-03-29T11:47:43.914Z,14.13
2019-03-29T11:50:12.701Z,18.13
2019-03-29T11:52:41.287Z,12.87
2019-03-29T11:55:09.779Z,11.90
2019-03-29T11:57:38.186Z,13.20
2019-03-29T12:00:09.446Z,14.07
2019-03-29T12:02:37.862Z,11.90
2019-03-29T12:05:07.663Z,12.93
2019-03-29T12:07:36.134Z,13.17
2019-03-29T12:10:06.374Z,11.73
2019-03-29T12:12:34.879Z,10.47
2019-03-29T12:15:03.520Z,10.50
2019-03-29T12:17:31.886Z,9.87
2019-03-29T12:20:00.511Z,9.37
2019-03-29T12:22:28.873Z,11.40
2019-03-29T12:24:57.288Z,12.67
2019-03-29T12:27:25.696Z,8.43
2019-03-29T12:29:54.123Z,6.50
2019-03-29T12:32:22.555Z,8.97
2019-03-29T12:34:50.962Z,9.60
2019-03-29T12:37:19.449Z,7.70
2019-03-29T12:39:47.879Z,10.30
2019-03-29T12:42:16.272Z,6.90
2019-03-29T12:44:44.711Z,8.30
2019-03-29T12:47:13.187Z,10.17
2019-03-29T12:49:41.692Z,6.57
2019-03-29T12:52:10.091Z,8.70
2019-03-29T12:54:38.507Z,9.07
2019-03-29T12:57:07.269Z,7.20
2019-03-29T12:59:35.827Z,6.93
2019-03-29T13:02:04.498Z,4.90
2019-03-29T13:04:32.932Z,5.90
2019-03-29T13:07:01.351Z,5.90
2019-03-29T13:09:29.805Z,6.83
2019-03-29T13:11:58.262Z,9.10
2019-03-29T13:14:26.737Z,5.70
2019-03-29T13:16:55.234Z,8.87
2019-03-29T13:19:23.646Z,5.97
2019-03-29T13:21:52.065Z,4.47
2019-03-29T13:24:20.554Z,7.80
2019-03-29T13:26:48.995Z,6.90
2019-03-29T13:29:17.480Z,7.27
2019-03-29T13:31:45.952Z,5.50
2019-03-29T13:34:14.462Z,6.43
2019-03-29T13:36:42.856Z,8.13
2019-03-29T13:39:11.446Z,7.60
2019-03-29T13:41:39.842Z,7.20
2019-03-29T13:44:08.286Z,5.40
2019-03-29T13:46:36.706Z,5.40
2019-03-29T13:49:05.228Z,7.00
2019-03-29T13:51:33.616Z,5.53
2019-03-29T13:54:02.027Z,4.83
2019-03-29T13:56:30.456Z,5.63
2019-03-29T13:58:58.990Z,6.57
2019-03-29T14:01:27.491Z,5.30
2019-03-29T14:03:55.883Z,6.43
2019-03-29T14:06:24.290Z,5.77
2019-03-29T14:08:52.687Z,7.47
2019-03-29T14:11:21.105Z,6.37
2019-03-29T14:13:49.579Z,7.33
2019-03-29T14:16:17.997Z,6.90
2019-03-29T14:18:46.422Z,4.20
2019-03-29T14:21:14.820Z,4.40
2019-03-29T14:23:43.261Z,7.67
2019-03-29T14:26:11.678Z,4.27
2019-03-29T14:28:40.082Z,5.20
2019-03-29T14:31:08.621Z,5.63
2019-03-29T14:33:37.054Z,3.47
2019-03-29T14:36:05.447Z,5.33
2019-03-29T14:38:33.871Z,5.30
2019-03-29T14:41:02.293Z,10.70
2019-03-29T14:43:30.785Z,6.50
2019-03-29T14:45:59.219Z,7.40
2019-03-29T14:48:27.655Z,7.80
2019-03-29T14:50:56.061Z,7.53
2019-03-29T14:53:24.486Z,6.13
2019-03-29T14:55:52.881Z,4.10
2019-03-29T14:58:21.305Z,7.53
2019-03-29T15:00:49.701Z,5.00
2019-03-29T15:03:18.102Z,5.80
2019-03-29T15:05:46.607Z,4.93
2019-03-29T15:08:15.016Z,5.10
2019-03-29T15:10:45.775Z,5.43
2019-03-29T15:13:13.582Z,7.30
2019-03-29T15:15:41.994Z,4.30
2019-03-29T15:18:10.386Z,3.80
2019-03-29T15:20:52.143Z,4.27
2019-03-29T15:23:08.963Z,4.53
2019-03-29T15:25:40.452Z,10.07
2019-03-29T15:28:07.610Z,4.00
2019-03-29T15:30:36.107Z,5.27
2019-03-29T15:33:04.536Z,3.80
2019-03-29T15:35:33.010Z,4.13
2019-03-29T15:38:01.486Z,4.57
2019-03-29T15:40:30.003Z,6.63
2019-03-29T15:42:58.491Z,7.13
2019-03-29T15:45:26.957Z,4.70
2019-03-29T15:47:55.355Z,4.97
2019-03-29T15:50:23.824Z,5.30
2019-03-29T15:52:52.250Z,6.13
2019-03-29T15:55:20.673Z,3.93
2019-03-29T15:57:49.089Z,6.63
2019-03-29T16:00:17.722Z,3.87
2019-03-29T16:02:46.130Z,6.43
2019-03-29T16:05:14.574Z,6.40
2019-03-29T16:07:43.119Z,4.23
2019-03-29T16:10:11.697Z,3.30
2019-03-29T16:12:40.149Z,3.37
2019-03-29T16:15:08.702Z,3.73
2019-03-29T16:17:37.192Z,7.13
2019-03-29T16:20:06.545Z,5.70
2019-03-29T16:22:35.233Z,6.57
2019-03-29T16:25:07.728Z,6.20
2019-03-29T16:27:36.243Z,7.70
2019-03-29T16:30:06.889Z,7.00
2019-03-29T16:32:36.139Z,6.17
2019-03-29T16:35:06.922Z,5.97
2019-03-29T16:37:35.428Z,3.60
2019-03-29T16:40:07.663Z,6.93
2019-03-29T16:42:36.245Z,4.80
2019-03-29T16:45:07.081Z,4.13
2019-03-29T16:47:35.540Z,5.27
2019-03-29T16:50:08.465Z,5.63
2019-03-29T16:52:36.887Z,8.13
2019-03-29T16:55:13.750Z,4.63
2019-03-29T16:57:37.565Z,5.40
2019-03-29T17:00:12.548Z,3.70
2019-03-29T17:02:41.455Z,5.80
2019-03-29T17:05:10.128Z,4.23
2019-03-29T17:07:38.545Z,7.60
2019-03-29T17:10:08.080Z,7.03
2019-03-29T17:12:36.501Z,5.30
2019-03-29T17:15:06.558Z,7.47
2019-03-29T17:17:35.448Z,5.53
2019-03-29T17:20:06.298Z,7.63
2019-03-29T17:22:35.435Z,6.20
2019-03-29T17:25:06.107Z,6.10
2019-03-29T17:27:34.577Z,3.73
2019-03-29T17:30:03.448Z,4.63
2019-03-29T17:32:31.897Z,4.20
2019-03-29T17:35:00.391Z,6.00
2019-03-29T17:37:28.744Z,6.43
2019-03-29T17:39:57.270Z,4.87
2019-03-29T17:42:25.681Z,6.73
2019-03-29T17:44:54.096Z,8.03
2019-03-29T17:47:22.597Z,4.83
2019-03-29T17:49:51.008Z,7.10
2019-03-29T17:52:19.427Z,8.10
2019-03-29T17:54:47.847Z,23.20
2019-03-29T17:57:16.275Z,10.00
2019-03-29T17:59:44.674Z,4.60
2019-03-29T18:02:13.154Z,4.73
2019-03-29T18:04:41.651Z,4.43
2019-03-29T18:07:10.078Z,5.00
2019-03-29T18:09:38.506Z,4.50
2019-03-29T18:12:06.920Z,4.73
2019-03-29T18:14:35.319Z,9.43
2019-03-29T18:17:03.807Z,3.23
2019-03-29T18:19:32.251Z,3.87
2019-03-29T18:22:00.716Z,3.40
2019-03-29T18:24:29.107Z,5.73
2019-03-29T18:26:57.594Z,4.73
2019-03-29T18:29:26.008Z,6.00
2019-03-29T18:31:54.591Z,9.17
2019-03-29T18:34:24.534Z,12.53
2019-03-29T18:36:54.326Z,7.13
2019-03-29T18:39:23.477Z,10.00
2019-03-29T18:41:52.234Z,4.17
2019-03-29T18:44:20.975Z,5.13
2019-03-29T18:46:51.230Z,5.47
2019-03-29T18:49:19.637Z,5.17
2019-03-29T18:51:48.355Z,3.80
2019-03-29T18:54:16.770Z,6.10
2019-03-29T18:56:45.178Z,7.83
2019-03-29T18:59:13.573Z,6.57
2019-03-29T19:01:41.991Z,9.30
2019-03-29T19:04:10.397Z,5.47
2019-03-29T19:06:39.451Z,4.70
2019-03-29T19:09:08.003Z,6.00
2019-03-29T19:11:36.968Z,3.60
2019-03-29T19:14:05.439Z,10.23
2019-03-29T19:16:33.852Z,7.63
2019-03-29T19:19:09.903Z,3.63
2019-03-29T19:21:32.637Z,4.80
2019-03-29T19:24:01.081Z,6.17
2019-03-29T19:26:29.557Z,6.43
2019-03-29T19:28:57.959Z,8.13
2019-03-29T19:31:26.373Z,6.87
2019-03-29T19:33:54.769Z,4.60
2019-03-29T19:36:23.199Z,7.93
2019-03-29T19:38:52.425Z,4.07
2019-03-29T19:41:20.826Z,5.70
2019-03-29T19:43:49.254Z,4.33
2019-03-29T19:46:17.708Z,6.10
2019-03-29T19:48:46.105Z,6.07
2019-03-29T19:51:14.509Z,4.37
2019-03-29T19:53:43.029Z,7.60
2019-03-29T19:56:11.398Z,4.70
2019-03-29T19:58:39.850Z,6.80
2019-03-29T20:01:08.226Z,3.83
2019-03-29T20:03:36.665Z,5.23
2019-03-29T20:06:05.111Z,6.67
2019-03-29T20:08:33.513Z,4.43
2019-03-29T20:11:02.052Z,9.40
2019-03-29T20:13:30.471Z,5.97
2019-03-29T20:15:58.904Z,3.93
2019-03-29T20:18:27.315Z,9.97
2019-03-29T20:20:55.716Z,6.20
2019-03-29T20:23:24.184Z,5.83
2019-03-29T20:25:52.571Z,5.30
2019-03-29T20:28:20.999Z,5.60
2019-03-29T20:30:49.411Z,6.27
2019-03-29T20:33:17.854Z,4.07
2019-03-29T20:35:46.321Z,10.53
2019-03-29T20:38:14.844Z,13.40
2019-03-29T20:40:43.308Z,8.33
2019-03-29T20:43:11.729Z,7.03
2019-03-29T20:45:40.208Z,5.27
2019-03-29T20:48:08.644Z,7.10
2019-03-29T20:50:37.144Z,5.17
2019-03-29T20:53:05.531Z,12.00
2019-03-29T20:55:34.174Z,7.90
2019-03-29T20:58:02.602Z,6.77
2019-03-29T21:00:33.879Z,10.37
2019-03-29T21:03:02.296Z,7.67
2019-03-29T21:05:30.720Z,14.37
2019-03-29T21:07:59.201Z,14.17
2019-03-29T21:10:27.653Z,7.43
2019-03-29T21:12:56.248Z,4.60
2019-03-29T21:15:24.802Z,8.90
2019-03-29T21:17:57.063Z,9.60
2019-03-29T21:20:23.423Z,7.03
2019-03-29T21:22:51.925Z,7.37
2019-03-29T21:25:20.371Z,7.00
2019-03-29T21:27:48.800Z,4.50
2019-03-29T21:30:17.553Z,5.33
2019-03-29T21:32:46.013Z,6.30
2019-03-29T21:35:14.563Z,5.20
2019-03-29T21:37:42.968Z,6.87
2019-03-29T21:40:13.484Z,6.83
2019-03-29T21:42:41.853Z,5.83
2019-03-29T21:45:10.704Z,8.20
2019-03-29T21:47:39.182Z,8.10
2019-03-29T21:50:10.433Z,5.83
2019-03-29T21:52:38.913Z,4.13
2019-03-29T21:55:08.854Z,4.83
2019-03-29T21:57:37.279Z,8.43
2019-03-29T22:00:08.669Z,7.73
2019-03-29T22:02:37.085Z,5.23
2019-03-29T22:05:10.149Z,7.03
2019-03-29T22:07:36.879Z,9.20
2019-03-29T22:10:08.548Z,5.77
2019-03-29T22:12:37.114Z,5.50
2019-03-29T22:15:08.365Z,6.10
2019-03-29T22:17:36.917Z,5.90
2019-03-29T22:20:09.477Z,3.73
2019-03-29T22:22:38.178Z,5.30
2019-03-29T22:25:08.241Z,8.67
2019-03-29T22:27:36.703Z,5.83
2019-03-29T22:30:08.183Z,8.30
2019-03-29T22:32:36.588Z,6.17
2019-03-29T22:35:07.447Z,6.33
2019-03-29T22:37:35.882Z,6.03
2019-03-29T22:40:09.231Z,5.27
2019-03-29T22:42:45.250Z,7.37
2019-03-29T22:45:14.354Z,5.00
2019-03-29T22:47:42.727Z,9.90
2019-03-29T22:50:14.855Z,5.80
2019-03-29T22:52:43.244Z,4.90
2019-03-29T22:55:11.731Z,7.23
2019-03-29T22:57:40.126Z,11.33
2019-03-29T23:00:14.139Z,6.40
2019-03-29T23:02:42.799Z,8.00
2019-03-29T23:05:11.289Z,8.63
2019-03-29T23:07:39.784Z,11.43
2019-03-29T23:10:08.274Z,4.90
2019-03-29T23:12:36.657Z,7.67
2019-03-29T23:15:07.383Z,5.87
2019-03-29T23:17:35.781Z,4.80
2019-03-29T23:20:05.144Z,4.83
2019-03-29T23:22:33.517Z,5.90
2019-03-29T23:25:01.944Z,5.77
2019-03-29T23:27:30.356Z,4.63
2019-03-29T23:29:58.782Z,5.77
2019-03-29T23:32:27.254Z,6.73
2019-03-29T23:34:55.652Z,5.60
2019-03-29T23:37:24.163Z,7.33
2019-03-29T23:39:52.646Z,5.70
2019-03-29T23:42:21.431Z,7.80
2019-03-29T23:44:49.867Z,8.07
2019-03-29T23:47:18.275Z,6.50
2019-03-29T23:49:46.688Z,9.13
2019-03-29T23:52:15.103Z,7.17
2019-03-29T23:54:43.584Z,7.83
2019-03-29T23:57:12.008Z,6.50
